createdAt,value
2019-03-26T00:02:29.942Z,10.72
2019-03-26T00:05:11.179Z,10.93
2019-03-26T00:07:51.584Z,10.18
2019-03-26T00:10:32.532Z,10.00
2019-03-26T00:13:13.814Z,9.83
2019-03-26T00:15:54.169Z,12.45
2019-03-26T00:18:34.926Z,11.25
2019-03-26T00:21:15.556Z,9.28
2019-03-26T00:23:56.244Z,12.85
2019-03-26T00:26:36.568Z,11.80
2019-03-26T00:29:16.964Z,13.32
2019-03-26T00:31:57.616Z,14.83
2019-03-26T00:34:38.411Z,11.33
2019-03-26T00:37:19.054Z,12.78
2019-03-26T00:39:59.926Z,12.53
2019-03-26T00:42:40.575Z,12.63
2019-03-26T00:45:21.256Z,12.98
2019-03-26T00:48:01.880Z,12.03
2019-03-26T00:50:42.719Z,11.90
2019-03-26T00:53:23.427Z,12.30
2019-03-26T00:56:04.286Z,12.37
2019-03-26T00:58:45.052Z,12.43
2019-03-26T01:01:25.961Z,12.15
2019-03-26T01:04:06.447Z,13.90
2019-03-26T01:06:47.565Z,11.88
2019-03-26T01:09:28.579Z,15.28
2019-03-26T01:12:09.441Z,11.93
2019-03-26T01:14:50.212Z,11.68
2019-03-26T01:17:30.776Z,14.38
2019-03-26T01:20:00.363Z,12.88
2019-03-26T01:22:48.899Z,13.65
2019-03-26T01:25:39.524Z,13.85
2019-03-26T01:28:27.133Z,11.22
2019-03-26T01:31:15.656Z,13.87
2019-03-26T01:34:04.307Z,13.28
2019-03-26T01:36:52.848Z,11.73
2019-03-26T01:39:41.333Z,12.37
2019-03-26T01:42:29.618Z,12.43
2019-03-26T01:45:17.848Z,11.10
2019-03-26T01:48:06.180Z,12.45
2019-03-26T01:50:35.431Z,11.63
2019-03-26T01:53:23.694Z,15.32
2019-03-26T01:56:12.232Z,13.22
2019-03-26T01:58:53.368Z,13.00
2019-03-26T02:01:34.405Z,13.55
2019-03-26T02:04:15.103Z,13.30
2019-03-26T02:06:55.820Z,13.62
2019-03-26T02:09:36.795Z,13.62
2019-03-26T02:12:17.797Z,12.88
2019-03-26T02:14:58.556Z,13.05
2019-03-26T02:17:39.902Z,16.17
2019-03-26T02:20:21.193Z,15.78
2019-03-26T02:23:01.617Z,14.07
2019-03-26T02:25:42.770Z,17.60
2019-03-26T02:28:23.461Z,15.32
2019-03-26T02:31:04.209Z,18.30
2019-03-26T02:33:45.010Z,14.10
2019-03-26T02:36:25.719Z,14.38
2019-03-26T02:39:06.257Z,16.75
2019-03-26T02:41:47.070Z,15.77
2019-03-26T02:44:27.633Z,16.30
2019-03-26T02:47:07.930Z,15.32
2019-03-26T02:49:48.465Z,16.63
2019-03-26T02:52:29.559Z,16.17
2019-03-26T02:55:10.882Z,17.77
2019-03-26T02:57:51.805Z,16.73
2019-03-26T03:00:32.593Z,16.37
2019-03-26T03:03:13.207Z,15.80
2019-03-26T03:05:53.641Z,16.23
2019-03-26T03:08:34.387Z,15.58
2019-03-26T03:11:15.778Z,15.48
2019-03-26T03:13:56.454Z,15.40
2019-03-26T03:16:37.203Z,16.27
2019-03-26T03:19:17.648Z,12.25
2019-03-26T03:21:58.477Z,13.58
2019-03-26T03:24:39.109Z,12.37
2019-03-26T03:27:19.799Z,12.13
2019-03-26T03:30:00.837Z,12.45
2019-03-26T03:32:41.294Z,14.78
2019-03-26T03:35:22.720Z,14.60
2019-03-26T03:38:03.217Z,14.13
2019-03-26T03:40:44.302Z,15.80
2019-03-26T03:43:25.627Z,16.80
2019-03-26T03:45:55.404Z,14.65
2019-03-26T03:48:44.372Z,14.20
2019-03-26T03:51:53.488Z,13.60
2019-03-26T03:57:52.722Z,14.28
2019-03-26T04:00:32.069Z,14.97
2019-03-26T04:03:12.817Z,15.23
2019-03-26T04:06:08.094Z,15.85
2019-03-26T04:08:37.133Z,16.23
2019-03-26T04:11:18.454Z,16.12
2019-03-26T04:13:59.192Z,15.32
2019-03-26T04:16:39.847Z,16.60
2019-03-26T04:19:21.097Z,15.08
2019-03-26T04:22:01.637Z,15.83
2019-03-26T04:24:42.518Z,15.68
2019-03-26T04:27:23.365Z,17.95
2019-03-26T04:30:04.237Z,15.63
2019-03-26T04:32:44.875Z,18.00
2019-03-26T04:35:25.534Z,16.07
2019-03-26T04:38:06.097Z,14.40
2019-03-26T04:40:46.945Z,14.93
2019-03-26T04:43:27.835Z,14.60
2019-03-26T04:46:08.603Z,18.50
2019-03-26T04:48:49.513Z,14.85
2019-03-26T04:51:30.057Z,22.80
2019-03-26T04:54:10.469Z,20.88
2019-03-26T04:56:51.323Z,22.58
2019-03-26T04:59:31.651Z,20.70
2019-03-26T05:02:12.553Z,22.67
2019-03-26T05:04:53.462Z,22.35
2019-03-26T05:07:33.871Z,26.05
2019-03-26T05:10:14.234Z,26.02
2019-03-26T05:12:55.306Z,25.40
2019-03-26T05:15:35.775Z,22.65
2019-03-26T05:18:16.468Z,23.70
2019-03-26T05:20:57.328Z,21.70
2019-03-26T05:23:38.242Z,20.97
2019-03-26T05:26:19.200Z,20.27
2019-03-26T05:29:00.299Z,21.90
2019-03-26T05:31:40.926Z,21.10
2019-03-26T05:34:22.049Z,21.50
2019-03-26T05:37:02.958Z,19.45
2019-03-26T05:39:43.959Z,18.77
2019-03-26T05:42:25.313Z,19.52
2019-03-26T05:44:54.999Z,17.40
2019-03-26T05:47:24.707Z,17.85
2019-03-26T05:49:54.137Z,17.13
2019-03-26T05:52:23.946Z,17.77
2019-03-26T05:54:53.560Z,17.05
2019-03-26T05:57:22.901Z,18.27
2019-03-26T05:59:52.221Z,17.37
2019-03-26T06:02:22.235Z,17.52
2019-03-26T06:04:51.700Z,16.52
2019-03-26T06:07:21.686Z,15.53
2019-03-26T06:09:51.265Z,17.80
2019-03-26T06:12:20.606Z,16.77
2019-03-26T06:14:49.939Z,17.65
2019-03-26T06:17:19.273Z,19.63
2019-03-26T06:19:48.684Z,22.93
2019-03-26T06:22:18.125Z,19.23
2019-03-26T06:24:47.801Z,18.20
2019-03-26T06:27:17.356Z,16.95
2019-03-26T06:29:46.667Z,21.20
2019-03-26T06:32:16.283Z,18.75
2019-03-26T06:34:45.709Z,14.75
2019-03-26T06:37:18.011Z,17.42
2019-03-26T06:39:46.828Z,17.17
2019-03-26T06:42:16.143Z,17.65
2019-03-26T06:44:45.468Z,18.55
2019-03-26T06:47:14.779Z,16.12
2019-03-26T06:49:44.553Z,16.73
2019-03-26T06:52:14.180Z,27.70
2019-03-26T06:54:43.576Z,26.80
2019-03-26T06:57:12.999Z,24.67
2019-03-26T06:59:42.631Z,28.25
2019-03-26T07:02:12.435Z,30.02
2019-03-26T07:04:46.598Z,26.57
2019-03-26T07:07:16.845Z,24.70
2019-03-26T07:09:46.152Z,22.70
2019-03-26T07:12:15.664Z,24.63
2019-03-26T07:14:44.971Z,21.93
2019-03-26T07:17:14.285Z,24.02
2019-03-26T07:19:43.946Z,23.75
2019-03-26T07:22:13.504Z,20.15
2019-03-26T07:24:43.151Z,21.33
2019-03-26T07:27:12.891Z,21.65
2019-03-26T07:29:42.279Z,21.70
2019-03-26T07:32:11.669Z,19.10
2019-03-26T07:34:41.091Z,20.85
2019-03-26T07:37:10.527Z,17.60
2019-03-26T07:39:40.109Z,16.67
2019-03-26T07:42:09.837Z,14.43
2019-03-26T07:44:39.187Z,13.78
2019-03-26T07:47:09.056Z,13.35
2019-03-26T07:49:38.799Z,13.23
2019-03-26T07:52:08.437Z,12.55
2019-03-26T07:54:37.787Z,12.37
2019-03-26T07:57:07.433Z,11.68
2019-03-26T07:59:36.739Z,12.30
2019-03-26T08:02:06.433Z,10.40
2019-03-26T08:04:36.048Z,10.75
2019-03-26T08:07:05.487Z,12.85
2019-03-26T08:09:34.935Z,13.08
2019-03-26T08:12:04.437Z,11.35
2019-03-26T08:14:33.767Z,12.60
2019-03-26T08:17:03.147Z,13.95
2019-03-26T08:19:32.582Z,14.45
2019-03-26T08:22:01.936Z,9.25
2019-03-26T08:24:31.294Z,9.73
2019-03-26T08:27:00.601Z,8.77
2019-03-26T08:29:30.478Z,10.00
2019-03-26T08:32:00.118Z,10.97
2019-03-26T08:34:29.469Z,11.20
2019-03-26T08:36:58.899Z,9.23
2019-03-26T08:39:28.527Z,9.43
2019-03-26T08:41:57.916Z,11.03
2019-03-26T08:44:46.172Z,10.87
2019-03-26T08:47:15.759Z,9.65
2019-03-26T08:49:45.081Z,11.55
2019-03-26T08:52:14.876Z,11.83
2019-03-26T08:54:44.180Z,10.93
2019-03-26T08:57:13.502Z,10.20
2019-03-26T08:59:42.941Z,10.93
2019-03-26T09:02:12.874Z,13.20
2019-03-26T09:04:42.229Z,14.33
2019-03-26T09:07:12.072Z,12.23
2019-03-26T09:09:41.783Z,11.80
2019-03-26T09:12:11.157Z,14.35
2019-03-26T09:14:40.485Z,13.83
2019-03-26T09:17:10.100Z,13.08
2019-03-26T09:19:39.463Z,14.68
2019-03-26T09:22:08.830Z,13.58
2019-03-26T09:24:38.189Z,15.83
2019-03-26T09:27:07.797Z,18.60
2019-03-26T09:29:37.421Z,17.98
2019-03-26T09:32:06.722Z,17.23
2019-03-26T09:34:36.051Z,21.10
2019-03-26T09:37:06.851Z,18.37
2019-03-26T09:39:38.372Z,22.00
2019-03-26T09:42:07.469Z,22.50
2019-03-26T09:44:37.039Z,23.55
2019-03-26T09:47:15.995Z,22.10
2019-03-26T09:49:37.547Z,22.75
2019-03-26T09:52:06.985Z,23.65
2019-03-26T09:54:36.305Z,23.90
2019-03-26T09:57:05.704Z,23.35
2019-03-26T09:59:35.110Z,26.23
2019-03-26T10:02:04.741Z,26.65
2019-03-26T10:04:34.048Z,27.07
2019-03-26T10:07:03.524Z,28.52
2019-03-26T10:09:32.844Z,25.92
2019-03-26T10:12:02.502Z,27.37
2019-03-26T10:14:31.936Z,27.07
2019-03-26T10:17:01.635Z,28.40
2019-03-26T10:19:30.951Z,27.53
2019-03-26T10:22:00.375Z,28.35
2019-03-26T10:24:29.796Z,27.98
2019-03-26T10:26:59.100Z,27.65
2019-03-26T10:29:30.558Z,29.90
2019-03-26T10:31:59.934Z,28.65
2019-03-26T10:34:29.311Z,26.80
2019-03-26T10:36:58.705Z,25.77
2019-03-26T10:39:27.998Z,27.60
2019-03-26T10:41:57.381Z,30.30
2019-03-26T10:44:26.679Z,26.48
2019-03-26T10:46:55.997Z,22.33
2019-03-26T10:49:25.345Z,21.68
2019-03-26T10:51:54.704Z,23.42
2019-03-26T10:54:24.017Z,24.37
2019-03-26T10:56:53.327Z,21.60
2019-03-26T10:59:22.669Z,22.45
2019-03-26T11:01:52.079Z,23.65
2019-03-26T11:04:22.745Z,22.77
2019-03-26T11:06:52.070Z,22.23
2019-03-26T11:09:26.958Z,19.12
2019-03-26T11:11:52.464Z,20.50
2019-03-26T11:14:22.278Z,22.32
2019-03-26T11:16:51.707Z,22.95
2019-03-26T11:19:21.012Z,22.65
2019-03-26T11:21:50.386Z,20.37
2019-03-26T11:24:19.903Z,20.90
2019-03-26T11:26:49.339Z,20.27
2019-03-26T11:29:18.670Z,20.92
2019-03-26T11:31:48.240Z,20.12
2019-03-26T11:34:17.611Z,23.25
2019-03-26T11:36:46.934Z,20.85
2019-03-26T11:39:16.509Z,19.32
2019-03-26T11:41:45.816Z,23.60
2019-03-26T11:44:15.150Z,21.42
2019-03-26T11:46:44.549Z,23.73
2019-03-26T11:49:14.262Z,23.62
2019-03-26T11:51:43.564Z,23.20
2019-03-26T11:54:12.900Z,20.65
2019-03-26T11:56:42.564Z,20.48
2019-03-26T11:59:12.773Z,23.38
2019-03-26T12:01:42.189Z,22.10
2019-03-26T12:04:11.509Z,22.22
2019-03-26T12:06:40.864Z,21.07
2019-03-26T12:09:10.456Z,21.05
2019-03-26T12:11:40.400Z,20.80
2019-03-26T12:14:09.777Z,22.82
2019-03-26T12:16:39.628Z,22.48
2019-03-26T12:19:09.410Z,24.52
2019-03-26T12:21:38.884Z,22.37
2019-03-26T12:24:08.341Z,19.90
2019-03-26T12:26:37.810Z,22.95
2019-03-26T12:29:07.523Z,21.90
2019-03-26T12:31:37.078Z,21.40
2019-03-26T12:34:06.535Z,20.93
2019-03-26T12:36:40.245Z,21.20
2019-03-26T12:39:09.135Z,18.92
2019-03-26T12:41:38.774Z,19.13
2019-03-26T12:44:08.143Z,21.37
2019-03-26T12:46:37.548Z,20.52
2019-03-26T12:49:06.985Z,18.15
2019-03-26T12:51:39.160Z,19.45
2019-03-26T12:54:07.461Z,19.20
2019-03-26T12:56:36.885Z,21.43
2019-03-26T12:59:06.367Z,18.37
2019-03-26T13:01:35.954Z,15.80
2019-03-26T13:04:12.575Z,14.07
2019-03-26T13:06:36.327Z,13.08
2019-03-26T13:09:08.447Z,11.65
2019-03-26T13:11:38.153Z,15.13
2019-03-26T13:14:07.539Z,12.93
2019-03-26T13:16:37.049Z,13.03
2019-03-26T13:19:06.504Z,12.70
2019-03-26T13:21:37.533Z,11.95
2019-03-26T13:24:07.156Z,13.98
2019-03-26T13:26:36.488Z,13.53
2019-03-26T13:29:05.942Z,13.88
2019-03-26T13:31:35.837Z,13.08
2019-03-26T13:34:05.376Z,13.20
2019-03-26T13:36:35.358Z,14.65
2019-03-26T13:39:07.095Z,13.93
2019-03-26T13:41:36.845Z,13.80
2019-03-26T13:44:06.247Z,14.60
2019-03-26T13:46:35.694Z,14.45
2019-03-26T13:49:05.410Z,10.68
2019-03-26T13:51:37.199Z,12.23
2019-03-26T13:54:06.031Z,12.63
2019-03-26T13:56:35.675Z,13.38
2019-03-26T13:59:05.179Z,9.45
2019-03-26T14:01:34.583Z,11.73
2019-03-26T14:04:03.980Z,11.73
2019-03-26T14:06:33.321Z,10.45
2019-03-26T14:09:03.662Z,9.58
2019-03-26T14:11:33.653Z,8.65
2019-03-26T14:14:03.012Z,9.40
2019-03-26T14:16:32.445Z,10.15
2019-03-26T14:19:01.862Z,8.73
2019-03-26T14:21:31.137Z,8.90
2019-03-26T14:24:00.557Z,7.42
2019-03-26T14:26:29.892Z,8.63
2019-03-26T14:28:59.319Z,10.87
2019-03-26T14:31:30.289Z,8.30
2019-03-26T14:34:00.668Z,8.70
2019-03-26T14:36:30.404Z,10.53
2019-03-26T14:39:00.043Z,8.18
2019-03-26T14:41:30.508Z,7.97
2019-03-26T14:44:00.068Z,8.43
2019-03-26T14:46:29.490Z,9.05
2019-03-26T14:48:59.123Z,8.10
2019-03-26T14:51:28.502Z,8.90
2019-03-26T14:53:57.939Z,8.33
2019-03-26T14:56:27.304Z,9.23
2019-03-26T14:58:56.629Z,8.40
2019-03-26T15:01:25.978Z,8.80
2019-03-26T15:03:55.653Z,8.10
2019-03-26T15:06:25.373Z,8.73
2019-03-26T15:08:54.716Z,9.80
2019-03-26T15:11:24.523Z,10.05
2019-03-26T15:13:54.261Z,8.55
2019-03-26T15:16:23.892Z,9.95
2019-03-26T15:18:53.285Z,10.90
2019-03-26T15:21:22.681Z,8.98
2019-03-26T15:23:52.036Z,10.30
2019-03-26T15:26:21.594Z,10.82
2019-03-26T15:28:51.034Z,11.28
2019-03-26T15:31:20.418Z,12.58
2019-03-26T15:33:49.725Z,11.25
2019-03-26T15:36:19.166Z,13.13
2019-03-26T15:38:48.568Z,12.45
2019-03-26T15:41:21.910Z,12.03
2019-03-26T15:43:48.897Z,12.45
2019-03-26T15:46:18.577Z,11.15
2019-03-26T15:48:48.260Z,12.20
2019-03-26T15:51:17.778Z,12.50
2019-03-26T15:53:47.097Z,12.80
2019-03-26T15:56:16.493Z,12.33
2019-03-26T15:58:46.091Z,11.60
2019-03-26T16:01:15.507Z,11.40
2019-03-26T16:03:44.926Z,12.45
2019-03-26T16:06:14.242Z,11.23
2019-03-26T16:08:43.611Z,12.58
2019-03-26T16:11:13.324Z,13.80
2019-03-26T16:13:42.824Z,12.35
2019-03-26T16:16:12.132Z,11.53
2019-03-26T16:18:41.427Z,11.23
2019-03-26T16:21:10.820Z,13.93
2019-03-26T16:23:40.428Z,12.40
2019-03-26T16:28:50.305Z,12.80
2019-03-26T16:31:20.048Z,12.95
2019-03-26T16:33:49.672Z,14.73
2019-03-26T16:36:19.120Z,16.20
2019-03-26T16:38:48.510Z,14.53
2019-03-26T16:41:17.859Z,14.47
2019-03-26T16:43:47.168Z,16.42
2019-03-26T16:46:16.501Z,15.72
2019-03-26T16:48:45.909Z,15.25
2019-03-26T16:51:15.333Z,16.30
2019-03-26T16:53:44.660Z,15.95
2019-03-26T16:56:14.434Z,17.80
2019-03-26T16:58:43.775Z,15.15
2019-03-26T17:01:13.355Z,17.57
2019-03-26T17:03:43.467Z,15.40
2019-03-26T17:06:12.807Z,15.13
2019-03-26T17:08:42.353Z,14.45
2019-03-26T17:11:12.033Z,16.45
2019-03-26T17:13:41.405Z,15.50
2019-03-26T17:16:10.742Z,15.15
2019-03-26T17:18:40.068Z,14.13
2019-03-26T17:21:09.387Z,15.08
2019-03-26T17:23:39.713Z,13.78
2019-03-26T17:26:09.632Z,14.85
2019-03-26T17:28:39.071Z,12.05
2019-03-26T17:31:08.728Z,15.65
2019-03-26T17:33:38.171Z,13.18
2019-03-26T17:36:07.604Z,13.90
2019-03-26T17:38:37.095Z,15.35
2019-03-26T17:41:06.506Z,14.60
2019-03-26T17:43:35.884Z,13.70
2019-03-26T17:46:05.283Z,13.83
2019-03-26T17:48:35.021Z,14.35
2019-03-26T17:51:04.600Z,15.23
2019-03-26T17:53:34.004Z,13.62
2019-03-26T17:56:03.405Z,13.55
2019-03-26T17:58:32.801Z,15.48
2019-03-26T18:01:02.119Z,14.50
2019-03-26T18:03:31.675Z,13.22
2019-03-26T18:06:01.106Z,12.05
2019-03-26T18:08:30.429Z,12.73
2019-03-26T18:11:00.304Z,12.28
2019-03-26T18:13:29.991Z,14.20
2019-03-26T18:16:00.169Z,12.63
2019-03-26T18:18:29.595Z,13.65
2019-03-26T18:20:59.034Z,14.68
2019-03-26T18:23:28.812Z,11.78
2019-03-26T18:25:58.550Z,13.97
2019-03-26T18:28:28.089Z,13.15
2019-03-26T18:30:57.860Z,13.40
2019-03-26T18:33:30.376Z,14.87
2019-03-26T18:36:00.500Z,14.25
2019-03-26T18:38:29.833Z,13.83
2019-03-26T18:40:59.183Z,15.10
2019-03-26T18:43:29.033Z,12.55
2019-03-26T18:46:01.337Z,14.05
2019-03-26T18:48:31.091Z,13.83
2019-03-26T18:51:00.419Z,13.22
2019-03-26T18:53:29.928Z,14.55
2019-03-26T18:55:59.240Z,12.95
2019-03-26T18:58:29.176Z,14.87
2019-03-26T19:00:58.988Z,14.13
2019-03-26T19:03:28.323Z,14.23
2019-03-26T19:05:57.823Z,14.90
2019-03-26T19:08:27.132Z,13.62
2019-03-26T19:10:56.462Z,16.05
2019-03-26T19:13:25.765Z,16.03
2019-03-26T19:15:59.239Z,15.90
2019-03-26T19:18:35.080Z,16.48
2019-03-26T19:21:04.596Z,16.07
2019-03-26T19:24:38.380Z,15.30
2019-03-26T19:27:12.188Z,16.90
2019-03-26T19:29:43.815Z,16.87
2019-03-26T19:32:13.748Z,18.23
2019-03-26T19:34:43.465Z,19.25
2019-03-26T19:37:12.945Z,20.75
2019-03-26T19:39:43.203Z,19.65
2019-03-26T19:42:12.619Z,18.37
2019-03-26T19:44:42.453Z,19.23
2019-03-26T19:47:12.155Z,19.95
2019-03-26T19:49:41.923Z,19.12
2019-03-26T19:52:11.908Z,18.42
2019-03-26T19:54:41.556Z,18.87
2019-03-26T19:57:11.161Z,21.33
2019-03-26T19:59:40.601Z,20.37
2019-03-26T20:02:10.267Z,18.82
2019-03-26T20:04:39.796Z,18.65
2019-03-26T20:07:09.092Z,22.62
2019-03-26T20:09:38.549Z,19.17
2019-03-26T20:12:07.990Z,20.12
2019-03-26T20:14:37.404Z,20.52
2019-03-26T20:17:06.814Z,19.65
2019-03-26T20:19:36.489Z,18.03
2019-03-26T20:22:06.598Z,20.40
2019-03-26T20:24:36.019Z,19.52
2019-03-26T20:27:05.911Z,21.05
2019-03-26T20:29:35.287Z,20.45
2019-03-26T20:32:04.735Z,21.55
2019-03-26T20:34:34.145Z,22.07
2019-03-26T20:37:03.531Z,24.20
2019-03-26T20:39:33.068Z,25.63
2019-03-26T20:42:02.590Z,23.10
2019-03-26T20:44:31.984Z,24.92
2019-03-26T20:47:01.324Z,23.55
2019-03-26T20:49:30.817Z,23.62
2019-03-26T20:52:00.176Z,24.90
2019-03-26T20:54:29.646Z,24.20
2019-03-26T20:56:59.253Z,23.18
2019-03-26T20:59:28.599Z,23.85
2019-03-26T21:01:58.058Z,23.83
2019-03-26T21:04:27.396Z,25.88
2019-03-26T21:06:56.753Z,22.55
2019-03-26T21:09:26.298Z,28.67
2019-03-26T21:11:55.714Z,28.62
2019-03-26T21:14:25.139Z,25.75
2019-03-26T21:16:54.460Z,26.20
2019-03-26T21:19:24.089Z,24.07
2019-03-26T21:21:53.484Z,27.77
2019-03-26T21:24:22.880Z,26.65
2019-03-26T21:26:52.211Z,24.23
2019-03-26T21:29:21.532Z,25.52
2019-03-26T21:31:50.838Z,24.93
2019-03-26T21:34:29.860Z,27.55
2019-03-26T21:36:51.376Z,25.37
2019-03-26T21:39:20.671Z,25.87
2019-03-26T21:41:50.093Z,26.82
2019-03-26T21:44:19.537Z,26.07
2019-03-26T21:46:49.245Z,27.70
2019-03-26T21:49:18.536Z,26.27
2019-03-26T21:51:48.120Z,27.30
2019-03-26T21:54:17.731Z,29.07
2019-03-26T21:56:47.097Z,26.33
2019-03-26T21:59:16.403Z,26.40
2019-03-26T22:01:45.807Z,26.57
2019-03-26T22:04:15.094Z,24.43
2019-03-26T22:06:44.476Z,31.93
2019-03-26T22:09:13.808Z,27.65
2019-03-26T22:11:49.819Z,28.23
2019-03-26T22:14:18.401Z,28.23
2019-03-26T22:16:45.610Z,29.35
2019-03-26T22:19:27.773Z,29.00
2019-03-26T22:21:46.620Z,30.80
2019-03-26T22:24:17.229Z,25.75
2019-03-26T22:26:47.020Z,25.62
2019-03-26T22:29:16.332Z,31.75
2019-03-26T22:31:45.934Z,29.25
2019-03-26T22:34:15.547Z,28.55
2019-03-26T22:36:44.930Z,28.87
2019-03-26T22:39:14.251Z,30.12
2019-03-26T22:41:44.114Z,27.80
2019-03-26T22:44:13.509Z,29.37
2019-03-26T22:46:42.988Z,28.63
2019-03-26T22:49:12.322Z,33.38
2019-03-26T22:51:41.614Z,30.02
2019-03-26T22:54:11.041Z,31.80
2019-03-26T22:56:40.412Z,28.50
2019-03-26T22:59:10.077Z,29.27
2019-03-26T23:01:39.537Z,31.60
2019-03-26T23:04:08.980Z,29.25
2019-03-26T23:06:38.361Z,31.30
2019-03-26T23:09:08.096Z,31.45
2019-03-26T23:11:37.403Z,28.20
2019-03-26T23:14:06.809Z,29.15
2019-03-26T23:16:36.608Z,28.20
2019-03-26T23:19:06.520Z,27.62
2019-03-26T23:21:35.918Z,28.57
2019-03-26T23:24:05.463Z,30.10
2019-03-26T23:26:34.884Z,28.98
2019-03-26T23:29:07.789Z,31.73
2019-03-26T23:31:36.292Z,32.17
2019-03-26T23:34:05.739Z,30.40
2019-03-26T23:36:35.053Z,32.10
2019-03-26T23:39:05.779Z,34.40
2019-03-26T23:41:35.108Z,30.73
2019-03-26T23:44:04.522Z,30.85
2019-03-26T23:46:33.871Z,31.57
2019-03-26T23:49:03.190Z,29.37
2019-03-26T23:51:32.875Z,30.60
2019-03-26T23:54:02.440Z,31.82
2019-03-26T23:56:31.743Z,30.37
2019-03-26T23:59:01.106Z,33.33
